Portada
METAR-TAF:

METAR-TAF

Aeroports :

Verona, Itàlia

latitud: 45-23N, longitud: 010-52E, altitud: 67 m

Observació

L'informe es va fer fa 35 minuts, a les 23:50 UTC
Vent 4 kt del Nord/Nord-Oest
Temperatura 25°C
Humitat 74%
Pressió 1017 hPa
Visibilitat 10 km o més
sense núvols per sota de 1500 mi sense presència de cumulonimbus.

METAR: LIPX 182350Z 34004KT CAVOK 25/20 Q1017

Hora: 02:25 (00:25 UTC)

Pronòstic

L'informe es va fer fa 1 hora i 25 minuts, a les 23:00 UTC
Pronòstic vàlid del 19 a les 00 UTC al 19 a les 24 UTC
Vent 5 kt amb direcció variable
Visibilitat 10 km o més
sense núvols per sota de 1500 mi sense presència de cumulonimbus.

TAF: LIPX 182300Z 1900/1924 VRB05KT CAVOK

Observacions i pronòstics meteorològics de més de 4000 aeroports (METAR i TAF).

Les estacions disponibles són els punts grocs i vermells al mapa.

Posi el ratolí al punt desitjat per veure el nom de l'estació.

Feu clic per veure les observacions i els pronòstics meteorològics.

Per canviar el mapa: feu clic els botons verds amb una creu de color negre per apropar; al botó verd amb un guió per allunyar la imatge; o en les fletxes verdes per a mapes adjacents.


METAR-TAF: